createdAt,value
2017-09-05T00:00:15.738Z,0.00
2017-09-05T00:01:16.173Z,0.00
2017-09-05T00:02:16.607Z,0.00
2017-09-05T00:03:17.034Z,0.00
2017-09-05T00:04:17.469Z,0.00
2017-09-05T00:05:17.905Z,0.00
2017-09-05T00:06:18.333Z,0.00
2017-09-05T00:07:18.766Z,0.00
2017-09-05T00:08:19.210Z,0.00
2017-09-05T00:09:19.626Z,0.00
2017-09-05T00:10:20.077Z,0.00
2017-09-05T00:11:20.500Z,0.00
2017-09-05T00:12:20.926Z,0.00
2017-09-05T00:13:21.363Z,0.00
2017-09-05T00:14:21.798Z,0.00
2017-09-05T00:15:22.225Z,0.00
2017-09-05T00:16:22.651Z,0.00
2017-09-05T00:17:23.092Z,0.00
2017-09-05T00:18:23.524Z,0.00
2017-09-05T00:19:23.969Z,0.00
2017-09-05T00:20:24.388Z,0.00
2017-09-05T00:21:24.821Z,0.00
2017-09-05T00:22:25.248Z,0.00
2017-09-05T00:23:25.692Z,0.00
2017-09-05T00:24:26.121Z,0.00
2017-09-05T00:25:26.553Z,0.00
2017-09-05T00:26:26.984Z,0.00
2017-09-05T00:27:27.423Z,0.00
2017-09-05T00:28:27.857Z,0.00
2017-09-05T00:29:28.278Z,0.00
2017-09-05T00:30:28.718Z,0.00
2017-09-05T00:31:29.142Z,0.00
2017-09-05T00:32:29.587Z,0.00
2017-09-05T00:33:30.166Z,0.00
2017-09-05T00:34:30.506Z,0.00
2017-09-05T00:35:30.895Z,0.00
2017-09-05T00:36:31.313Z,0.00
2017-09-05T00:37:31.743Z,0.00
2017-09-05T00:38:32.178Z,0.00
2017-09-05T00:39:32.632Z,0.00
2017-09-05T00:40:33.042Z,0.00
2017-09-05T00:41:33.472Z,0.00
2017-09-05T00:42:33.918Z,0.00
2017-09-05T00:43:34.339Z,0.00
2017-09-05T00:44:34.773Z,0.00
2017-09-05T00:45:35.208Z,0.00
2017-09-05T00:46:35.645Z,0.00
2017-09-05T00:47:36.069Z,0.00
2017-09-05T00:48:36.521Z,0.00
2017-09-05T00:49:36.934Z,0.00
2017-09-05T00:50:37.368Z,0.00
2017-09-05T00:51:37.799Z,0.00
2017-09-05T00:52:38.231Z,0.00
2017-09-05T00:53:38.664Z,0.00
2017-09-05T00:54:39.103Z,0.00
2017-09-05T00:55:39.539Z,0.00
2017-09-05T00:56:39.964Z,0.00
2017-09-05T00:57:40.398Z,0.00
2017-09-05T00:58:40.827Z,0.00
2017-09-05T00:59:41.263Z,0.00
2017-09-05T01:00:41.695Z,0.00
2017-09-05T01:01:42.137Z,0.00
2017-09-05T01:02:42.556Z,0.00
2017-09-05T01:03:42.993Z,0.00
2017-09-05T01:04:43.425Z,0.00
2017-09-05T01:05:43.859Z,0.00
2017-09-05T01:06:44.288Z,0.00
2017-09-05T01:07:44.719Z,0.00
2017-09-05T01:08:45.154Z,0.00
2017-09-05T01:09:45.591Z,0.00
2017-09-05T01:10:46.022Z,0.00
2017-09-05T01:11:46.453Z,0.00
2017-09-05T01:12:46.884Z,0.00
2017-09-05T01:13:47.319Z,0.00
2017-09-05T01:14:47.747Z,0.00
2017-09-05T01:15:48.186Z,0.00
2017-09-05T01:16:48.619Z,0.00
2017-09-05T01:17:49.062Z,0.00
2017-09-05T01:18:49.482Z,0.00
2017-09-05T01:19:49.922Z,0.00
2017-09-05T01:20:50.361Z,0.00
2017-09-05T01:21:50.782Z,0.00
2017-09-05T01:22:51.211Z,0.00
2017-09-05T01:23:51.640Z,0.00
2017-09-05T01:24:52.074Z,0.00
2017-09-05T01:25:52.503Z,0.00
2017-09-05T01:26:52.941Z,0.00
2017-09-05T01:27:53.375Z,0.00
2017-09-05T01:28:53.803Z,0.00
2017-09-05T01:29:54.241Z,0.00
2017-09-05T01:30:54.673Z,0.00
2017-09-05T01:31:55.100Z,0.00
2017-09-05T01:32:55.527Z,0.00
2017-09-05T01:33:55.968Z,0.00
2017-09-05T01:34:56.394Z,0.00
2017-09-05T01:35:56.832Z,0.00
2017-09-05T01:36:57.260Z,0.00
2017-09-05T01:37:57.694Z,0.00
2017-09-05T01:38:58.127Z,0.00
2017-09-05T01:39:58.551Z,0.00
2017-09-05T01:40:58.987Z,0.00
2017-09-05T01:41:59.421Z,0.00
2017-09-05T01:42:59.857Z,0.00
2017-09-05T01:44:00.287Z,0.00
2017-09-05T01:45:00.719Z,0.00
2017-09-05T01:46:01.153Z,0.00
2017-09-05T01:47:01.588Z,0.00
2017-09-05T01:48:02.009Z,0.00
2017-09-05T01:49:02.441Z,0.00
2017-09-05T01:50:02.876Z,0.00
2017-09-05T01:51:03.308Z,0.00
2017-09-05T01:52:03.734Z,0.00
2017-09-05T01:53:04.174Z,0.00
2017-09-05T01:54:04.602Z,0.00
2017-09-05T01:55:05.081Z,0.00
2017-09-05T01:56:05.467Z,0.00
2017-09-05T01:57:05.901Z,0.00
2017-09-05T01:58:06.329Z,0.00
2017-09-05T01:59:06.762Z,0.00
2017-09-05T02:00:07.205Z,0.00
2017-09-05T02:01:07.629Z,0.00
2017-09-05T02:02:08.061Z,0.00
2017-09-05T02:03:08.492Z,0.00
2017-09-05T02:04:08.920Z,0.00
2017-09-05T02:05:09.353Z,0.00
2017-09-05T02:06:09.788Z,0.00
2017-09-05T02:07:10.222Z,0.00
2017-09-05T02:08:10.660Z,0.00
2017-09-05T02:09:11.087Z,0.00
2017-09-05T02:10:11.517Z,0.00
2017-09-05T02:11:11.948Z,0.00
2017-09-05T02:12:12.391Z,0.00
2017-09-05T02:13:12.809Z,0.00
2017-09-05T02:14:13.254Z,0.00
2017-09-05T02:15:13.689Z,0.00
2017-09-05T02:16:14.113Z,0.00
2017-09-05T02:17:14.535Z,0.00
2017-09-05T02:18:14.994Z,0.00
2017-09-05T02:19:15.401Z,0.00
2017-09-05T02:20:15.831Z,0.00
2017-09-05T02:21:16.264Z,0.00
2017-09-05T02:22:16.699Z,0.00
2017-09-05T02:23:17.132Z,0.00
2017-09-05T02:24:17.563Z,0.00
2017-09-05T02:25:17.994Z,0.00
2017-09-05T02:26:18.430Z,0.00
2017-09-05T02:27:18.862Z,0.00
2017-09-05T02:28:19.293Z,0.00
2017-09-05T02:29:19.721Z,0.00
2017-09-05T02:30:20.152Z,0.00
2017-09-05T02:31:20.600Z,0.00
2017-09-05T02:32:21.018Z,0.00
2017-09-05T02:33:21.451Z,0.00
2017-09-05T02:34:21.888Z,0.00
2017-09-05T02:35:22.319Z,0.00
2017-09-05T02:36:22.750Z,0.00
2017-09-05T02:37:23.174Z,0.00
2017-09-05T02:38:23.624Z,0.00
2017-09-05T02:39:24.044Z,0.00
2017-09-05T02:40:24.478Z,0.00
2017-09-05T02:41:24.906Z,0.00
2017-09-05T02:42:25.336Z,0.00
2017-09-05T02:43:25.769Z,0.00
2017-09-05T02:44:26.195Z,0.00
2017-09-05T02:45:26.632Z,0.00
2017-09-05T02:46:27.063Z,0.00
2017-09-05T02:47:27.506Z,0.00
2017-09-05T02:48:27.926Z,0.00
2017-09-05T02:49:28.370Z,0.00
2017-09-05T02:50:28.788Z,0.00
2017-09-05T02:51:29.217Z,0.00
2017-09-05T02:52:29.649Z,0.00
2017-09-05T02:53:30.085Z,0.00
2017-09-05T02:54:30.518Z,0.00
2017-09-05T02:55:30.944Z,0.00
2017-09-05T02:56:31.390Z,0.00
2017-09-05T02:57:31.824Z,0.00
2017-09-05T02:58:32.250Z,0.00
2017-09-05T02:59:32.675Z,0.00
2017-09-05T03:00:33.103Z,0.00
2017-09-05T03:01:33.534Z,0.00
2017-09-05T03:02:33.961Z,0.00
2017-09-05T03:03:34.396Z,0.00
2017-09-05T03:04:34.839Z,0.00
2017-09-05T03:05:35.262Z,0.00
2017-09-05T03:06:35.693Z,0.00
2017-09-05T03:07:36.121Z,0.00
2017-09-05T03:08:36.556Z,0.00
2017-09-05T03:09:36.992Z,0.00
2017-09-05T03:10:37.420Z,0.00
2017-09-05T03:11:37.850Z,0.00
2017-09-05T03:12:38.287Z,0.00
2017-09-05T03:13:38.715Z,0.00
2017-09-05T03:14:39.151Z,0.00
2017-09-05T03:15:39.579Z,0.00
2017-09-05T03:16:40.006Z,0.00
2017-09-05T03:17:40.445Z,0.00
2017-09-05T03:18:40.877Z,0.00
2017-09-05T03:19:41.302Z,0.00
2017-09-05T03:20:41.732Z,0.00
2017-09-05T03:21:42.172Z,0.00
2017-09-05T03:22:42.598Z,0.00
2017-09-05T03:23:43.028Z,0.00
2017-09-05T03:24:43.468Z,0.00
2017-09-05T03:25:43.894Z,0.00
2017-09-05T03:26:44.321Z,0.00
2017-09-05T03:27:44.753Z,0.00
2017-09-05T03:28:45.201Z,0.00
2017-09-05T03:29:45.616Z,0.00
2017-09-05T03:30:46.047Z,0.00
2017-09-05T03:31:46.479Z,0.00
2017-09-05T03:32:46.910Z,0.00
2017-09-05T03:33:47.341Z,0.00
2017-09-05T03:34:47.772Z,0.00
2017-09-05T03:35:48.214Z,0.00
2017-09-05T03:36:48.631Z,0.00
2017-09-05T03:37:49.061Z,0.00
2017-09-05T03:38:49.496Z,0.00
2017-09-05T03:39:49.926Z,0.00
2017-09-05T03:40:50.367Z,0.00
2017-09-05T03:41:50.788Z,0.00
2017-09-05T03:42:51.215Z,0.00
2017-09-05T03:43:51.647Z,0.00
2017-09-05T03:44:52.083Z,0.00
2017-09-05T03:45:52.518Z,0.00
2017-09-05T03:46:52.948Z,0.00
2017-09-05T03:47:53.382Z,0.00
2017-09-05T03:48:53.815Z,0.00
2017-09-05T03:49:54.238Z,4.00
2017-09-05T03:50:54.676Z,4.00
2017-09-05T03:51:55.103Z,4.00
2017-09-05T03:52:55.541Z,0.00
2017-09-05T03:53:55.964Z,0.00
2017-09-05T03:54:56.391Z,4.00
2017-09-05T03:55:56.829Z,4.00
2017-09-05T03:56:57.258Z,4.00
2017-09-05T03:57:57.692Z,4.00
2017-09-05T03:58:58.116Z,4.00
2017-09-05T03:59:58.568Z,4.00
2017-09-05T04:00:58.980Z,4.00
2017-09-05T04:01:59.409Z,8.00
2017-09-05T04:02:59.842Z,8.00
2017-09-05T04:04:00.274Z,8.00
2017-09-05T04:05:00.706Z,12.00
2017-09-05T04:06:01.135Z,8.00
2017-09-05T04:07:01.563Z,12.00
2017-09-05T04:08:01.993Z,12.00
2017-09-05T04:09:02.426Z,16.00
2017-09-05T04:10:02.858Z,16.00
2017-09-05T04:11:03.293Z,20.00
2017-09-05T04:12:03.725Z,24.00
2017-09-05T04:13:04.146Z,24.00
2017-09-05T04:14:04.580Z,28.00
2017-09-05T04:15:05.009Z,32.00
2017-09-05T04:16:05.444Z,36.00
2017-09-05T04:17:05.868Z,44.00
2017-09-05T04:18:06.313Z,48.00
2017-09-05T04:19:06.737Z,56.00
2017-09-05T04:20:07.162Z,64.00
2017-09-05T04:21:07.615Z,72.00
2017-09-05T04:22:08.028Z,84.00
2017-09-05T04:23:08.455Z,92.00
2017-09-05T04:24:08.883Z,108.00
2017-09-05T04:25:09.333Z,120.00
2017-09-05T04:26:09.801Z,140.00
2017-09-05T04:27:10.177Z,156.00
2017-09-05T04:28:10.605Z,176.00
2017-09-05T04:29:11.038Z,200.00
2017-09-05T04:30:11.473Z,224.00
2017-09-05T04:31:11.897Z,248.00
2017-09-05T04:32:12.335Z,272.00
2017-09-05T04:33:12.765Z,300.00
2017-09-05T04:34:13.193Z,332.00
2017-09-05T04:35:13.624Z,360.00
2017-09-05T04:36:14.076Z,392.00
2017-09-05T04:37:14.482Z,424.00
2017-09-05T04:38:14.912Z,456.00
2017-09-05T04:39:15.349Z,492.00
2017-09-05T04:40:15.782Z,524.00
2017-09-05T04:41:16.203Z,556.00
2017-09-05T04:42:16.634Z,588.00
2017-09-05T04:43:17.073Z,624.00
2017-09-05T04:44:17.504Z,664.00
2017-09-05T04:45:17.930Z,696.00
2017-09-05T04:46:18.357Z,732.00
2017-09-05T04:47:18.796Z,768.00
2017-09-05T04:48:19.223Z,808.00
2017-09-05T04:49:19.652Z,848.00
2017-09-05T04:50:20.088Z,884.00
2017-09-05T04:51:20.519Z,920.00
2017-09-05T04:52:20.949Z,960.00
2017-09-05T04:53:21.379Z,996.00
2017-09-05T04:54:21.800Z,1036.00
2017-09-05T04:55:22.234Z,1072.00
2017-09-05T04:56:22.665Z,1112.00
2017-09-05T04:57:23.108Z,1156.00
2017-09-05T04:58:23.533Z,1192.00
2017-09-05T04:59:23.961Z,1232.00
2017-09-05T05:00:24.389Z,1268.00
2017-09-05T05:01:24.818Z,1304.00
2017-09-05T05:02:25.257Z,1340.00
2017-09-05T05:03:25.679Z,1380.00
2017-09-05T05:04:26.106Z,1416.00
2017-09-05T05:05:26.542Z,1448.00
2017-09-05T05:06:26.975Z,1484.00
2017-09-05T05:07:27.407Z,1508.00
2017-09-05T05:08:27.851Z,1540.00
2017-09-05T05:09:28.266Z,1568.00
2017-09-05T05:10:28.692Z,1600.00
2017-09-05T05:11:29.145Z,1632.00
2017-09-05T05:12:29.560Z,1668.00
2017-09-05T05:13:29.984Z,1692.00
2017-09-05T05:14:30.426Z,1716.00
2017-09-05T05:15:30.850Z,1736.00
2017-09-05T05:16:31.284Z,1760.00
2017-09-05T05:17:31.708Z,1784.00
2017-09-05T05:18:32.138Z,1816.00
2017-09-05T05:19:32.574Z,1848.00
2017-09-05T05:20:33.000Z,1872.00
2017-09-05T05:21:33.425Z,1896.00
2017-09-05T05:22:33.870Z,1924.00
2017-09-05T05:23:34.336Z,1956.00
2017-09-05T05:24:34.725Z,1984.00
2017-09-05T05:25:35.151Z,2020.00
2017-09-05T05:26:35.579Z,2052.00
2017-09-05T05:27:36.012Z,2080.00
2017-09-05T05:28:36.440Z,2116.00
2017-09-05T05:29:36.874Z,2148.00
2017-09-05T05:30:37.311Z,2188.00
2017-09-05T05:31:37.738Z,2224.00
2017-09-05T05:32:38.168Z,2252.00
2017-09-05T05:33:38.597Z,2272.00
2017-09-05T05:34:39.030Z,2292.00
2017-09-05T05:35:39.457Z,2304.00
2017-09-05T05:36:39.891Z,2324.00
2017-09-05T05:37:40.324Z,2356.00
2017-09-05T05:38:40.759Z,2376.00
2017-09-05T05:39:41.179Z,2404.00
2017-09-05T05:40:41.632Z,2436.00
2017-09-05T05:41:42.043Z,2472.00
2017-09-05T05:42:42.476Z,2496.00
2017-09-05T05:43:42.909Z,2540.00
2017-09-05T05:44:43.334Z,2568.00
2017-09-05T05:45:43.764Z,2600.00
2017-09-05T05:46:44.196Z,2644.00
2017-09-05T05:47:44.657Z,2680.00
2017-09-05T05:48:45.063Z,2704.00
2017-09-05T05:49:45.489Z,2736.00
2017-09-05T05:50:45.935Z,2764.00
2017-09-05T05:51:46.356Z,2804.00
2017-09-05T05:52:46.793Z,2836.00
2017-09-05T05:53:47.234Z,2856.00
2017-09-05T05:54:47.674Z,2896.00
2017-09-05T05:55:48.081Z,2936.00
2017-09-05T05:56:48.691Z,2964.00
2017-09-05T05:57:48.938Z,3004.00
2017-09-05T05:58:49.376Z,3048.00
2017-09-05T05:59:49.816Z,3084.00
2017-09-05T06:00:50.241Z,3124.00
2017-09-05T06:01:50.669Z,3168.00
2017-09-05T06:02:51.103Z,3200.00
2017-09-05T06:03:51.532Z,3240.00
2017-09-05T06:04:51.965Z,3268.00
2017-09-05T06:05:52.395Z,3320.00
2017-09-05T06:06:52.831Z,3368.00
2017-09-05T06:07:53.268Z,3380.00
2017-09-05T06:08:53.697Z,3416.00
2017-09-05T06:09:54.121Z,3440.00
2017-09-05T06:10:54.557Z,3460.00
2017-09-05T06:11:54.991Z,3484.00
2017-09-05T06:12:55.418Z,3532.00
2017-09-05T06:13:55.857Z,3588.00
2017-09-05T06:14:56.282Z,3644.00
2017-09-05T06:15:56.715Z,3704.00
2017-09-05T06:16:57.143Z,3760.00
2017-09-05T06:17:57.582Z,3796.00
2017-09-05T06:18:58.008Z,3832.00
2017-09-05T06:19:58.443Z,3860.00
2017-09-05T06:20:58.880Z,3904.00
2017-09-05T06:21:59.304Z,3956.00
2017-09-05T06:22:59.733Z,3992.00
2017-09-05T06:24:00.167Z,4068.00
2017-09-05T06:25:00.607Z,4120.00
2017-09-05T06:26:01.031Z,4152.00
2017-09-05T06:27:01.474Z,4204.00
2017-09-05T06:28:01.900Z,4216.00
2017-09-05T06:29:02.331Z,4272.00
2017-09-05T06:30:02.764Z,4336.00
2017-09-05T06:31:03.197Z,4412.00
2017-09-05T06:32:03.627Z,4472.00
2017-09-05T06:33:04.081Z,4556.00
2017-09-05T06:34:04.489Z,4640.00
2017-09-05T06:35:04.921Z,4704.00
2017-09-05T06:36:05.359Z,4744.00
2017-09-05T06:37:05.791Z,4792.00
2017-09-05T06:38:06.225Z,4860.00
2017-09-05T06:39:06.654Z,4880.00
2017-09-05T06:40:07.087Z,4928.00
2017-09-05T06:41:07.532Z,4992.00
2017-09-05T06:42:07.959Z,5032.00
2017-09-05T06:43:08.385Z,5072.00
2017-09-05T06:44:08.818Z,5080.00
2017-09-05T06:45:09.280Z,5104.00
2017-09-05T06:47:42.802Z,5140.00
2017-09-05T06:48:43.230Z,5168.00
2017-09-05T06:50:38.055Z,5252.00
2017-09-05T06:51:38.229Z,5280.00
2017-09-05T06:53:32.794Z,5364.00
2017-09-05T06:54:33.232Z,5396.00
2017-09-05T06:56:27.804Z,5480.00
2017-09-05T06:57:28.239Z,5560.00
2017-09-05T06:59:22.803Z,5684.00
2017-09-05T07:00:23.244Z,5712.00
2017-09-05T07:02:17.804Z,5680.00
2017-09-05T07:03:18.294Z,5652.00
2017-09-05T07:05:13.784Z,5764.00
2017-09-05T07:06:14.232Z,5916.00
2017-09-05T07:08:08.796Z,6140.00
2017-09-05T07:09:09.238Z,6272.00
2017-09-05T07:11:03.820Z,6500.00
2017-09-05T07:12:04.251Z,6596.00
2017-09-05T07:13:59.795Z,6776.00
2017-09-05T07:15:00.233Z,6844.00
2017-09-05T07:16:54.851Z,6908.00
2017-09-05T07:17:55.245Z,6932.00
2017-09-05T07:19:49.825Z,7136.00
2017-09-05T07:20:50.271Z,7260.00
2017-09-05T07:22:44.856Z,7532.00
2017-09-05T07:23:45.270Z,7628.00
2017-09-05T07:25:40.822Z,7936.00
2017-09-05T07:26:41.255Z,8152.00
2017-09-05T07:28:36.818Z,8556.00
2017-09-05T07:29:37.265Z,8840.00
2017-09-05T07:31:31.844Z,9456.00
2017-09-05T07:32:32.291Z,9820.00
2017-09-05T07:34:26.851Z,10712.00
2017-09-05T07:35:27.296Z,11240.00
2017-09-05T07:37:21.859Z,11996.00
2017-09-05T07:38:22.303Z,12332.00
2017-09-05T07:40:16.877Z,12656.00
2017-09-05T07:41:17.312Z,12848.00
2017-09-05T07:43:11.877Z,38048.00
2017-09-05T07:44:12.318Z,45824.00
2017-09-05T07:45:12.754Z,44288.00
2017-09-05T07:46:13.199Z,42176.00
2017-09-05T07:47:13.640Z,40544.00
2017-09-05T07:48:14.080Z,40576.00
2017-09-05T07:49:14.541Z,42656.00
2017-09-05T07:50:14.963Z,45760.00
2017-09-05T07:51:22.566Z,48448.00
2017-09-05T07:54:45.055Z,41728.00
2017-09-05T07:55:45.625Z,45984.00
2017-09-05T07:57:40.094Z,43232.00
2017-09-05T07:58:40.553Z,41952.00
2017-09-05T08:02:21.689Z,50560.00
2017-09-05T08:03:22.202Z,49440.00
2017-09-05T08:05:16.734Z,45376.00
2017-09-05T08:06:17.197Z,42880.00
2017-09-05T08:08:11.775Z,41632.00
2017-09-05T08:09:12.239Z,42272.00
2017-09-05T08:11:06.836Z,45984.00
2017-09-05T08:12:07.301Z,48192.00
2017-09-05T08:14:02.149Z,53440.00
2017-09-05T08:15:02.500Z,56896.00
2017-09-05T08:16:57.298Z,58944.00
2017-09-05T08:17:57.422Z,59168.00
2017-09-05T08:19:52.046Z,58432.00
2017-09-05T08:20:52.516Z,49984.00
2017-09-05T08:22:47.118Z,47552.00
2017-09-05T08:23:47.575Z,48640.00
2017-09-05T08:25:42.192Z,49280.00
2017-09-05T08:26:42.662Z,52160.00
2017-09-05T08:28:37.284Z,52192.00
2017-09-05T08:29:37.724Z,54144.00
2017-09-05T08:31:32.327Z,61856.00
2017-09-05T08:32:32.787Z,60384.00
2017-09-05T08:34:27.396Z,54016.00
2017-09-05T08:35:27.886Z,51776.00
2017-09-05T08:37:22.506Z,54784.00
2017-09-05T08:38:22.954Z,59584.00
2017-09-05T08:40:17.577Z,64992.00
2017-09-05T08:41:18.031Z,62880.00
2017-09-05T08:43:13.828Z,50368.00
2017-09-05T08:44:14.080Z,52928.00
2017-09-05T08:46:08.689Z,51072.00
2017-09-05T08:47:09.240Z,51936.00
2017-09-05T08:49:03.789Z,63456.00
2017-09-05T08:50:04.269Z,67936.00
2017-09-05T08:51:59.832Z,72032.00
2017-09-05T08:53:00.304Z,73120.00
2017-09-05T08:54:54.912Z,70336.00
2017-09-05T08:55:55.811Z,69248.00
2017-09-05T08:57:50.984Z,69824.00
2017-09-05T08:58:51.459Z,69088.00
2017-09-05T09:00:47.258Z,63200.00
2017-09-05T09:01:47.733Z,60160.00
2017-09-05T09:03:43.339Z,55840.00
2017-09-05T09:04:43.787Z,53152.00
2017-09-05T09:06:38.395Z,59296.00
2017-09-05T09:07:38.864Z,63648.00
2017-09-05T09:09:33.485Z,70208.00
2017-09-05T09:10:33.947Z,60928.00
2017-09-05T09:12:28.554Z,63936.00
2017-09-05T09:13:29.029Z,66976.00
2017-09-05T09:15:23.652Z,64096.00
2017-09-05T09:16:24.137Z,62912.00
2017-09-05T09:18:18.728Z,68192.00
2017-09-05T09:19:19.202Z,74016.00
2017-09-05T09:21:13.815Z,77056.00
2017-09-05T09:22:14.279Z,74752.00
2017-09-05T09:24:08.896Z,75904.00
2017-09-05T09:25:09.371Z,73632.00
2017-09-05T09:27:03.979Z,66304.00
2017-09-05T09:28:04.447Z,62592.00
2017-09-05T09:30:00.063Z,61152.00
2017-09-05T09:31:00.523Z,63968.00
2017-09-05T09:32:56.135Z,66528.00
2017-09-05T09:33:56.593Z,68128.00
2017-09-05T09:35:51.207Z,63648.00
2017-09-05T09:36:51.671Z,56832.00
2017-09-05T09:38:46.287Z,51136.00
2017-09-05T09:39:46.763Z,53408.00
2017-09-05T09:41:42.366Z,81696.00
2017-09-05T09:42:42.835Z,85536.00
2017-09-05T09:44:37.465Z,81920.00
2017-09-05T09:45:37.917Z,50240.00
2017-09-05T09:47:32.539Z,18336.00
2017-09-05T09:48:33.008Z,17600.00
2017-09-05T09:50:27.629Z,16960.00
2017-09-05T09:51:28.109Z,18176.00
2017-09-05T09:53:23.703Z,32672.00
2017-09-05T09:54:24.171Z,74816.00
2017-09-05T09:56:18.785Z,89696.00
2017-09-05T09:57:19.254Z,88640.00
2017-09-05T09:59:13.898Z,80672.00
2017-09-05T10:00:14.349Z,74208.00
2017-09-05T10:02:08.960Z,65248.00
2017-09-05T10:03:09.432Z,65440.00
2017-09-05T10:05:04.152Z,70688.00
2017-09-05T10:06:04.622Z,73472.00
2017-09-05T10:08:00.231Z,79744.00
2017-09-05T10:09:00.699Z,64096.00
2017-09-05T10:10:55.330Z,77920.00
2017-09-05T10:11:55.795Z,80928.00
2017-09-05T10:13:50.401Z,77984.00
2017-09-05T10:14:50.868Z,81728.00
2017-09-05T10:16:45.489Z,84928.00
2017-09-05T10:17:45.955Z,65120.00
2017-09-05T10:19:40.609Z,77824.00
2017-09-05T10:20:41.047Z,72224.00
2017-09-05T10:22:35.684Z,72128.00
2017-09-05T10:23:36.165Z,76320.00
2017-09-05T10:25:31.609Z,76992.00
2017-09-05T10:26:32.080Z,80480.00
2017-09-05T10:28:26.710Z,84032.00
2017-09-05T10:29:27.200Z,82048.00
2017-09-05T10:31:21.796Z,80640.00
2017-09-05T10:32:22.263Z,75360.00
2017-09-05T10:34:16.878Z,76736.00
2017-09-05T10:35:17.356Z,69888.00
2017-09-05T10:37:11.975Z,71872.00
2017-09-05T10:38:12.454Z,72992.00
2017-09-05T10:40:08.057Z,78944.00
2017-09-05T10:41:08.530Z,78528.00
2017-09-05T10:43:04.145Z,75936.00
2017-09-05T10:44:04.617Z,58816.00
2017-09-05T10:45:59.251Z,67968.00
2017-09-05T10:46:59.727Z,64640.00
2017-09-05T10:48:55.317Z,61792.00
2017-09-05T10:49:55.784Z,62528.00
2017-09-05T10:51:50.401Z,59232.00
2017-09-05T10:52:50.875Z,45888.00
2017-09-05T10:54:45.539Z,60864.00
2017-09-05T10:55:45.982Z,65920.00
2017-09-05T10:57:40.580Z,68224.00
2017-09-05T10:58:41.050Z,67648.00
2017-09-05T11:00:35.659Z,71328.00
2017-09-05T11:01:36.120Z,71776.00
2017-09-05T11:03:30.744Z,71040.00
2017-09-05T11:04:31.211Z,73760.00
2017-09-05T11:06:25.835Z,70304.00
2017-09-05T11:07:26.301Z,76768.00
2017-09-05T11:09:20.927Z,72608.00
2017-09-05T11:10:21.392Z,70080.00
2017-09-05T11:12:16.017Z,62240.00
2017-09-05T11:13:16.491Z,61920.00
2017-09-05T11:14:16.953Z,63712.00
2017-09-05T11:15:17.415Z,63776.00
2017-09-05T11:16:17.880Z,65504.00
2017-09-05T11:17:18.340Z,71264.00
2017-09-05T11:18:18.811Z,61248.00
2017-09-05T11:19:19.275Z,51680.00
2017-09-05T11:20:19.740Z,64544.00
2017-09-05T11:21:20.202Z,69152.00
2017-09-05T11:22:20.672Z,64832.00
2017-09-05T11:23:21.135Z,62080.00
2017-09-05T11:24:21.600Z,71008.00
2017-09-05T11:25:22.068Z,71456.00
2017-09-05T11:26:22.532Z,68736.00
2017-09-05T11:27:22.991Z,66336.00
2017-09-05T11:28:23.460Z,71040.00
2017-09-05T11:29:23.914Z,71200.00
2017-09-05T11:30:24.379Z,69216.00
2017-09-05T11:31:24.853Z,70912.00
2017-09-05T11:32:25.306Z,66048.00
2017-09-05T11:33:25.768Z,65824.00
2017-09-05T11:34:26.243Z,63456.00
2017-09-05T11:35:26.698Z,68096.00
2017-09-05T11:36:27.171Z,68768.00
2017-09-05T11:37:27.626Z,67200.00
2017-09-05T11:38:28.093Z,28960.00
2017-09-05T11:39:28.560Z,9832.00
2017-09-05T11:40:29.012Z,9388.00
2017-09-05T11:41:29.481Z,9248.00
2017-09-05T11:42:29.942Z,9164.00
2017-09-05T11:43:30.399Z,8928.00
2017-09-05T11:44:30.859Z,8564.00
2017-09-05T11:45:31.314Z,8456.00
2017-09-05T11:46:31.780Z,8580.00
2017-09-05T11:47:32.231Z,8380.00
2017-09-05T11:48:32.688Z,8260.00
2017-09-05T11:49:33.151Z,8112.00
2017-09-05T11:50:33.598Z,8028.00
2017-09-05T11:51:34.056Z,8048.00
2017-09-05T11:52:34.506Z,8032.00
2017-09-05T11:53:34.959Z,7948.00
2017-09-05T11:54:35.412Z,7872.00
2017-09-05T11:55:35.877Z,7684.00
2017-09-05T11:56:36.312Z,7636.00
2017-09-05T11:57:36.758Z,7648.00
2017-09-05T11:58:37.211Z,7636.00
2017-09-05T11:59:37.696Z,7572.00
2017-09-05T12:00:38.105Z,7396.00
2017-09-05T12:01:38.559Z,7256.00
2017-09-05T12:02:39.008Z,7184.00
2017-09-05T12:03:39.468Z,7060.00
2017-09-05T12:04:39.896Z,6880.00
2017-09-05T12:05:40.376Z,7016.00
2017-09-05T12:06:40.799Z,6852.00
2017-09-05T12:07:41.244Z,7104.00
2017-09-05T12:08:41.684Z,7232.00
2017-09-05T12:09:42.132Z,7340.00
2017-09-05T12:10:42.574Z,7252.00
2017-09-05T12:11:43.025Z,7280.00
2017-09-05T12:12:43.469Z,7448.00
2017-09-05T12:13:43.909Z,7396.00
2017-09-05T12:14:44.357Z,7688.00
2017-09-05T12:15:44.805Z,7792.00
2017-09-05T12:16:45.271Z,7984.00
2017-09-05T12:17:45.693Z,8020.00
2017-09-05T12:18:46.144Z,7896.00
2017-09-05T12:19:46.590Z,7708.00
2017-09-05T12:20:47.027Z,7788.00
2017-09-05T12:21:47.476Z,7828.00
2017-09-05T12:22:47.924Z,7684.00
2017-09-05T12:23:48.364Z,7576.00
2017-09-05T12:24:48.808Z,7340.00
2017-09-05T12:25:49.256Z,7192.00
2017-09-05T12:26:49.702Z,6996.00
2017-09-05T12:27:50.146Z,6712.00
2017-09-05T12:28:50.588Z,6632.00
2017-09-05T12:29:51.031Z,6592.00
2017-09-05T12:30:51.484Z,6772.00
2017-09-05T12:31:51.932Z,6620.00
2017-09-05T12:32:52.373Z,6480.00
2017-09-05T12:33:52.813Z,6472.00
2017-09-05T12:34:53.256Z,6648.00
2017-09-05T12:35:53.726Z,6652.00
2017-09-05T12:36:54.152Z,6572.00
2017-09-05T12:37:54.592Z,6480.00
2017-09-05T12:38:55.038Z,6472.00
2017-09-05T12:39:55.484Z,6388.00
2017-09-05T12:40:55.923Z,6344.00
2017-09-05T12:41:56.367Z,6324.00
2017-09-05T12:42:56.819Z,6268.00
2017-09-05T12:43:57.259Z,6348.00
2017-09-05T12:44:57.707Z,6116.00
2017-09-05T12:45:58.150Z,6092.00
2017-09-05T12:46:58.599Z,5996.00
2017-09-05T12:47:59.042Z,5924.00
2017-09-05T12:48:59.480Z,5872.00
2017-09-05T12:49:59.928Z,5804.00
2017-09-05T12:51:00.382Z,5744.00
2017-09-05T12:52:00.830Z,5716.00
2017-09-05T12:53:01.258Z,5572.00
2017-09-05T12:54:01.708Z,5632.00
2017-09-05T12:55:02.147Z,5724.00
2017-09-05T12:56:02.597Z,5756.00
2017-09-05T12:57:03.035Z,5792.00
2017-09-05T12:58:03.485Z,5732.00
2017-09-05T12:59:03.927Z,5712.00
2017-09-05T13:00:04.370Z,5552.00
2017-09-05T13:01:04.817Z,5540.00
2017-09-05T13:02:05.260Z,5488.00
2017-09-05T13:03:05.705Z,5460.00
2017-09-05T13:04:06.150Z,5540.00
2017-09-05T13:05:06.656Z,5372.00
2017-09-05T13:06:07.038Z,5352.00
2017-09-05T13:07:07.535Z,5420.00
2017-09-05T13:08:07.939Z,5440.00
2017-09-05T13:09:08.371Z,5400.00
2017-09-05T13:10:08.812Z,5336.00
2017-09-05T13:11:09.264Z,5224.00
2017-09-05T13:12:09.706Z,5088.00
2017-09-05T13:13:10.147Z,4984.00
2017-09-05T13:14:10.594Z,5040.00
2017-09-05T13:15:11.041Z,5044.00
2017-09-05T13:16:11.483Z,4988.00
2017-09-05T13:17:11.928Z,4988.00
2017-09-05T13:18:12.377Z,4952.00
2017-09-05T13:19:12.816Z,4824.00
2017-09-05T13:20:13.259Z,4820.00
2017-09-05T13:21:13.705Z,4832.00
2017-09-05T13:22:14.155Z,4780.00
2017-09-05T13:23:14.593Z,4788.00
2017-09-05T13:24:15.057Z,4844.00
2017-09-05T13:25:15.489Z,4948.00
2017-09-05T13:26:15.927Z,4916.00
2017-09-05T13:27:16.374Z,4848.00
2017-09-05T13:28:16.827Z,4768.00
2017-09-05T13:29:17.279Z,4748.00
2017-09-05T13:30:17.739Z,4632.00
2017-09-05T13:31:18.208Z,4580.00
2017-09-05T13:32:18.591Z,4640.00
2017-09-05T13:33:19.040Z,4632.00
2017-09-05T13:34:19.493Z,4640.00
2017-09-05T13:35:19.928Z,4704.00
2017-09-05T13:36:20.372Z,4708.00
2017-09-05T13:37:20.815Z,4676.00
2017-09-05T13:38:21.266Z,4740.00
2017-09-05T13:39:21.849Z,4744.00
2017-09-05T13:40:22.164Z,4732.00
2017-09-05T13:41:22.597Z,4708.00
2017-09-05T13:42:23.038Z,4680.00
2017-09-05T13:43:23.484Z,4704.00
2017-09-05T13:44:23.935Z,4656.00
2017-09-05T13:45:24.381Z,4620.00
2017-09-05T13:46:24.829Z,4560.00
2017-09-05T13:47:25.261Z,4552.00
2017-09-05T13:48:25.704Z,4540.00
2017-09-05T13:49:26.150Z,4596.00
2017-09-05T13:50:26.606Z,4620.00
2017-09-05T13:51:27.048Z,4608.00
2017-09-05T13:52:27.483Z,4632.00
2017-09-05T13:53:27.926Z,4568.00